sensor_id;sensor_type;location;lat;lon;timestamp;pressure;altitude;pressure_sealevel;temperature;humidity
80149;BME280;69473;42.426;26.644;2023-08-06T00:02:13;97798.47;;;23.47;77.03
80149;BME280;69473;42.426;26.644;2023-08-06T00:04:39;97814.38;;;23.58;76.17
80149;BME280;69473;42.426;26.644;2023-08-06T00:07:04;97809.34;;;23.55;76.43
80149;BME280;69473;42.426;26.644;2023-08-06T00:09:30;97814.13;;;23.61;76.53
80149;BME280;69473;42.426;26.644;2023-08-06T00:11:55;97810.34;;;23.65;76.29
80149;BME280;69473;42.426;26.644;2023-08-06T00:14:21;97806.53;;;23.69;75.52
80149;BME280;69473;42.426;26.644;2023-08-06T00:16:46;97801.06;;;23.60;75.75
80149;BME280;69473;42.426;26.644;2023-08-06T00:19:12;97791.53;;;23.57;76.35
80149;BME280;69473;42.426;26.644;2023-08-06T00:21:38;97793.22;;;23.58;76.35
80149;BME280;69473;42.426;26.644;2023-08-06T00:24:03;97791.28;;;23.49;76.75
80149;BME280;69473;42.426;26.644;2023-08-06T00:26:29;97785.78;;;23.52;76.81
80149;BME280;69473;42.426;26.644;2023-08-06T00:28:54;97785.25;;;23.47;76.78
80149;BME280;69473;42.426;26.644;2023-08-06T00:31:20;97771.81;;;23.50;76.83
80149;BME280;69473;42.426;26.644;2023-08-06T00:33:45;97771.34;;;23.56;76.65
80149;BME280;69473;42.426;26.644;2023-08-06T00:36:11;97774.91;;;23.44;76.91
80149;BME280;69473;42.426;26.644;2023-08-06T00:38:36;97761.94;;;23.41;76.50
80149;BME280;69473;42.426;26.644;2023-08-06T00:41:02;97755.91;;;23.39;76.52
80149;BME280;69473;42.426;26.644;2023-08-06T00:43:27;97759.00;;;23.33;76.69
80149;BME280;69473;42.426;26.644;2023-08-06T00:45:53;97754.00;;;23.41;76.55
80149;BME280;69473;42.426;26.644;2023-08-06T00:48:19;97751.06;;;23.33;76.92
80149;BME280;69473;42.426;26.644;2023-08-06T00:50:45;97754.69;;;23.32;77.41
80149;BME280;69473;42.426;26.644;2023-08-06T00:53:11;97754.91;;;23.28;76.97
80149;BME280;69473;42.426;26.644;2023-08-06T00:55:37;97748.78;;;23.28;77.47
80149;BME280;69473;42.426;26.644;2023-08-06T00:58:04;97739.28;;;23.25;77.12
80149;BME280;69473;42.426;26.644;2023-08-06T01:00:30;97737.16;;;23.31;77.24
80149;BME280;69473;42.426;26.644;2023-08-06T01:02:56;97743.88;;;23.35;76.50
80149;BME280;69473;42.426;26.644;2023-08-06T01:05:22;97729.94;;;23.33;77.17
80149;BME280;69473;42.426;26.644;2023-08-06T01:13:49;97730.84;;;23.20;77.62
80149;BME280;69473;42.426;26.644;2023-08-06T01:16:21;97732.56;;;23.21;78.02
80149;BME280;69473;42.426;26.644;2023-08-06T01:18:48;97723.44;;;23.25;77.59
80149;BME280;69473;42.426;26.644;2023-08-06T01:21:18;97716.69;;;23.21;78.21
80149;BME280;69473;42.426;26.644;2023-08-06T01:23:45;97714.38;;;23.17;78.38
80149;BME280;69473;42.426;26.644;2023-08-06T01:26:31;97715.00;;;23.20;77.86
80149;BME280;69473;42.426;26.644;2023-08-06T01:29:10;97728.78;;;23.13;78.68
80149;BME280;69473;42.426;26.644;2023-08-06T01:31:39;97730.69;;;23.11;79.32
80149;BME280;69473;42.426;26.644;2023-08-06T01:34:11;97726.47;;;23.08;78.96
80149;BME280;69473;42.426;26.644;2023-08-06T01:36:40;97724.34;;;23.13;78.88
80149;BME280;69473;42.426;26.644;2023-08-06T01:39:07;97727.44;;;23.07;79.35
80149;BME280;69473;42.426;26.644;2023-08-06T01:41:32;97726.47;;;23.08;79.34
80149;BME280;69473;42.426;26.644;2023-08-06T01:43:58;97718.50;;;22.97;80.18
80149;BME280;69473;42.426;26.644;2023-08-06T01:46:23;97725.25;;;23.01;79.73
80149;BME280;69473;42.426;26.644;2023-08-06T01:48:49;97718.28;;;23.00;79.67
80149;BME280;69473;42.426;26.644;2023-08-06T01:51:14;97714.00;;;23.10;79.01
80149;BME280;69473;42.426;26.644;2023-08-06T01:53:40;97705.34;;;23.08;79.45
80149;BME280;69473;42.426;26.644;2023-08-06T01:56:06;97698.81;;;23.01;79.60
80149;BME280;69473;42.426;26.644;2023-08-06T01:58:31;97696.94;;;23.03;79.29
80149;BME280;69473;42.426;26.644;2023-08-06T02:00:57;97695.38;;;22.88;80.49
80149;BME280;69473;42.426;26.644;2023-08-06T02:03:22;97684.59;;;22.91;80.49
80149;BME280;69473;42.426;26.644;2023-08-06T02:05:48;97684.91;;;22.86;80.87
80149;BME280;69473;42.426;26.644;2023-08-06T02:08:13;97687.47;;;22.88;80.86
80149;BME280;69473;42.426;26.644;2023-08-06T02:10:39;97697.03;;;22.77;81.54
80149;BME280;69473;42.426;26.644;2023-08-06T02:13:05;97695.47;;;22.86;80.71
80149;BME280;69473;42.426;26.644;2023-08-06T02:15:30;97698.69;;;22.78;81.13
80149;BME280;69473;42.426;26.644;2023-08-06T02:17:56;97702.53;;;22.74;81.49
80149;BME280;69473;42.426;26.644;2023-08-06T02:20:21;97697.84;;;22.78;81.58
80149;BME280;69473;42.426;26.644;2023-08-06T02:22:47;97696.81;;;22.68;81.46
80149;BME280;69473;42.426;26.644;2023-08-06T02:25:12;97695.31;;;22.76;81.36
80149;BME280;69473;42.426;26.644;2023-08-06T02:27:38;97700.59;;;22.76;81.25
80149;BME280;69473;42.426;26.644;2023-08-06T02:30:05;97707.81;;;22.74;81.88
80149;BME280;69473;42.426;26.644;2023-08-06T02:32:30;97697.25;;;22.74;81.31
80149;BME280;69473;42.426;26.644;2023-08-06T02:34:57;97705.94;;;22.64;82.74
80149;BME280;69473;42.426;26.644;2023-08-06T02:37:23;97691.53;;;22.68;82.18
80149;BME280;69473;42.426;26.644;2023-08-06T02:39:48;97695.75;;;22.70;82.20
80149;BME280;69473;42.426;26.644;2023-08-06T02:42:14;97693.78;;;22.61;82.71
80149;BME280;69473;42.426;26.644;2023-08-06T02:44:39;97694.53;;;22.63;82.60
80149;BME280;69473;42.426;26.644;2023-08-06T02:47:05;97692.50;;;22.67;83.00
80149;BME280;69473;42.426;26.644;2023-08-06T02:49:31;97687.75;;;22.72;82.14
80149;BME280;69473;42.426;26.644;2023-08-06T02:51:56;97677.22;;;22.59;82.86
80149;BME280;69473;42.426;26.644;2023-08-06T02:54:22;97683.34;;;22.59;82.64
80149;BME280;69473;42.426;26.644;2023-08-06T02:56:47;97673.84;;;22.57;83.12
80149;BME280;69473;42.426;26.644;2023-08-06T02:59:13;97682.00;;;22.54;83.19
80149;BME280;69473;42.426;26.644;2023-08-06T03:01:39;97674.69;;;22.57;82.76
80149;BME280;69473;42.426;26.644;2023-08-06T03:04:05;97674.66;;;22.46;83.83
80149;BME280;69473;42.426;26.644;2023-08-06T03:06:31;97680.13;;;22.43;83.66
80149;BME280;69473;42.426;26.644;2023-08-06T03:08:57;97680.00;;;22.45;83.80
80149;BME280;69473;42.426;26.644;2023-08-06T03:11:22;97667.34;;;22.50;83.79
80149;BME280;69473;42.426;26.644;2023-08-06T03:13:48;97663.53;;;22.54;84.04
80149;BME280;69473;42.426;26.644;2023-08-06T03:16:14;97658.84;;;22.57;82.89
80149;BME280;69473;42.426;26.644;2023-08-06T03:18:40;97657.06;;;22.58;83.22
80149;BME280;69473;42.426;26.644;2023-08-06T03:21:06;97652.06;;;22.66;82.61
80149;BME280;69473;42.426;26.644;2023-08-06T03:23:32;97638.88;;;22.66;82.46
80149;BME280;69473;42.426;26.644;2023-08-06T03:26:04;97638.13;;;22.64;82.41
80149;BME280;69473;42.426;26.644;2023-08-06T03:28:29;97638.88;;;22.66;82.43
80149;BME280;69473;42.426;26.644;2023-08-06T03:31:00;97642.47;;;22.65;82.40
80149;BME280;69473;42.426;26.644;2023-08-06T03:33:26;97632.22;;;22.60;82.70
80149;BME280;69473;42.426;26.644;2023-08-06T03:35:51;97634.72;;;22.75;82.07
80149;BME280;69473;42.426;26.644;2023-08-06T03:38:17;97635.31;;;22.78;82.14
80149;BME280;69473;42.426;26.644;2023-08-06T03:40:42;97635.31;;;22.78;82.02
80149;BME280;69473;42.426;26.644;2023-08-06T03:43:08;97641.34;;;22.80;81.53
80149;BME280;69473;42.426;26.644;2023-08-06T03:45:34;97646.28;;;22.85;81.37
80149;BME280;69473;42.426;26.644;2023-08-06T03:47:59;97636.09;;;22.92;80.66
80149;BME280;69473;42.426;26.644;2023-08-06T03:50:25;97640.94;;;22.98;80.71
80149;BME280;69473;42.426;26.644;2023-08-06T03:52:50;97644.56;;;22.97;80.61
80149;BME280;69473;42.426;26.644;2023-08-06T03:55:16;97646.00;;;23.01;80.75
80149;BME280;69473;42.426;26.644;2023-08-06T03:57:41;97649.16;;;23.06;79.94
80149;BME280;69473;42.426;26.644;2023-08-06T04:00:07;97651.09;;;23.15;79.82
80149;BME280;69473;42.426;26.644;2023-08-06T04:02:33;97653.06;;;23.24;79.55
80149;BME280;69473;42.426;26.644;2023-08-06T04:04:58;97651.41;;;23.46;78.62
80149;BME280;69473;42.426;26.644;2023-08-06T04:07:25;97646.13;;;23.46;78.65
80149;BME280;69473;42.426;26.644;2023-08-06T04:09:56;97646.16;;;23.68;78.12
80149;BME280;69473;42.426;26.644;2023-08-06T04:12:22;97652.44;;;23.79;76.88
80149;BME280;69473;42.426;26.644;2023-08-06T04:14:47;97637.53;;;24.00;76.32
80149;BME280;69473;42.426;26.644;2023-08-06T04:17:13;97641.13;;;24.10;74.96
80149;BME280;69473;42.426;26.644;2023-08-06T04:19:38;97634.84;;;24.23;74.30
80149;BME280;69473;42.426;26.644;2023-08-06T04:22:04;97630.50;;;24.33;74.10
80149;BME280;69473;42.426;26.644;2023-08-06T04:24:29;97623.75;;;24.51;72.70
80149;BME280;69473;42.426;26.644;2023-08-06T04:26:55;97621.31;;;24.59;73.30
80149;BME280;69473;42.426;26.644;2023-08-06T04:29:20;97621.56;;;24.56;72.55
80149;BME280;69473;42.426;26.644;2023-08-06T04:31:46;97620.81;;;24.65;73.51
80149;BME280;69473;42.426;26.644;2023-08-06T04:34:11;97611.41;;;24.73;73.14
80149;BME280;69473;42.426;26.644;2023-08-06T04:36:37;97611.47;;;24.50;73.93
80149;BME280;69473;42.426;26.644;2023-08-06T04:39:04;97606.09;;;24.73;72.84
80149;BME280;69473;42.426;26.644;2023-08-06T04:41:29;97612.22;;;25.05;71.03
80149;BME280;69473;42.426;26.644;2023-08-06T04:43:56;97619.44;;;25.15;70.20
80149;BME280;69473;42.426;26.644;2023-08-06T04:46:22;97615.50;;;25.30;69.69
80149;BME280;69473;42.426;26.644;2023-08-06T04:48:47;97617.53;;;25.47;69.19
80149;BME280;69473;42.426;26.644;2023-08-06T04:51:13;97612.91;;;25.19;69.28
80149;BME280;69473;42.426;26.644;2023-08-06T04:53:39;97620.44;;;25.44;69.08
80149;BME280;69473;42.426;26.644;2023-08-06T04:56:05;97618.38;;;25.48;68.95
80149;BME280;69473;42.426;26.644;2023-08-06T04:58:30;97630.47;;;25.62;68.02
80149;BME280;69473;42.426;26.644;2023-08-06T05:00:56;97624.41;;;25.80;67.54
80149;BME280;69473;42.426;26.644;2023-08-06T05:03:22;97627.56;;;25.95;66.52
80149;BME280;69473;42.426;26.644;2023-08-06T05:05:47;97629.44;;;26.14;65.70
80149;BME280;69473;42.426;26.644;2023-08-06T05:08:16;97626.72;;;25.95;65.81
80149;BME280;69473;42.426;26.644;2023-08-06T05:10:44;97629.34;;;26.35;63.54
80149;BME280;69473;42.426;26.644;2023-08-06T05:13:10;97617.38;;;26.51;63.07
80149;BME280;69473;42.426;26.644;2023-08-06T05:15:36;97618.03;;;26.33;63.71
80149;BME280;69473;42.426;26.644;2023-08-06T05:18:02;97624.31;;;26.32;64.41
80149;BME280;69473;42.426;26.644;2023-08-06T05:20:27;97624.69;;;26.68;63.84
80149;BME280;69473;42.426;26.644;2023-08-06T05:22:53;97619.34;;;27.07;62.10
80149;BME280;69473;42.426;26.644;2023-08-06T05:25:18;97616.88;;;27.15;61.70
80149;BME280;69473;42.426;26.644;2023-08-06T05:27:44;97619.63;;;27.43;58.58
80149;BME280;69473;42.426;26.644;2023-08-06T05:30:10;97616.75;;;27.73;58.09
80149;BME280;69473;42.426;26.644;2023-08-06T05:32:36;97611.94;;;27.86;57.23
80149;BME280;69473;42.426;26.644;2023-08-06T05:35:01;97610.78;;;27.99;57.65
80149;BME280;69473;42.426;26.644;2023-08-06T05:37:28;97614.63;;;28.14;55.90
80149;BME280;69473;42.426;26.644;2023-08-06T05:39:53;97613.44;;;28.26;55.60
80149;BME280;69473;42.426;26.644;2023-08-06T05:42:19;97611.97;;;28.42;55.31
80149;BME280;69473;42.426;26.644;2023-08-06T05:44:44;97614.03;;;28.20;54.61
80149;BME280;69473;42.426;26.644;2023-08-06T05:47:10;97606.91;;;28.39;54.22
80149;BME280;69473;42.426;26.644;2023-08-06T05:49:35;97615.00;;;28.47;54.23
80149;BME280;69473;42.426;26.644;2023-08-06T05:52:01;97617.16;;;28.97;52.86
80149;BME280;69473;42.426;26.644;2023-08-06T05:54:27;97626.44;;;29.29;51.20
80149;BME280;69473;42.426;26.644;2023-08-06T05:56:53;97623.47;;;29.84;49.35
80149;BME280;69473;42.426;26.644;2023-08-06T05:59:19;97619.09;;;30.68;47.75
80149;BME280;69473;42.426;26.644;2023-08-06T06:01:44;97625.50;;;30.75;45.62
80149;BME280;69473;42.426;26.644;2023-08-06T06:04:10;97627.47;;;31.71;43.88
80149;BME280;69473;42.426;26.644;2023-08-06T06:06:35;97623.66;;;32.21;43.15
80149;BME280;69473;42.426;26.644;2023-08-06T06:09:01;97612.44;;;32.57;41.75
80149;BME280;69473;42.426;26.644;2023-08-06T06:11:26;97615.19;;;32.09;42.47
80149;BME280;69473;42.426;26.644;2023-08-06T06:13:52;97611.75;;;32.63;41.31
80149;BME280;69473;42.426;26.644;2023-08-06T06:16:17;97629.72;;;32.15;43.57
80149;BME280;69473;42.426;26.644;2023-08-06T06:18:43;97618.66;;;33.26;41.19
80149;BME280;69473;42.426;26.644;2023-08-06T06:21:10;97624.59;;;32.45;42.80
80149;BME280;69473;42.426;26.644;2023-08-06T06:23:35;97602.63;;;33.56;40.49
80149;BME280;69473;42.426;26.644;2023-08-06T06:29:09;97613.75;;;33.15;41.50
80149;BME280;69473;42.426;26.644;2023-08-06T06:31:35;97603.28;;;33.20;41.36
80149;BME280;69473;42.426;26.644;2023-08-06T06:34:00;97598.88;;;34.46;38.68
80149;BME280;69473;42.426;26.644;2023-08-06T06:36:26;97592.00;;;34.58;38.59
80149;BME280;69473;42.426;26.644;2023-08-06T06:38:52;97587.84;;;34.56;38.58
80149;BME280;69473;42.426;26.644;2023-08-06T06:41:17;97588.03;;;34.03;38.97
80149;BME280;69473;42.426;26.644;2023-08-06T06:43:43;97596.69;;;34.35;39.14
80149;BME280;69473;42.426;26.644;2023-08-06T06:46:08;97597.53;;;34.71;37.86
80149;BME280;69473;42.426;26.644;2023-08-06T06:48:34;97596.91;;;34.18;39.34
80149;BME280;69473;42.426;26.644;2023-08-06T06:51:00;97605.72;;;33.45;40.40
80149;BME280;69473;42.426;26.644;2023-08-06T06:53:25;97604.94;;;34.69;37.89
80149;BME280;69473;42.426;26.644;2023-08-06T06:56:03;97599.72;;;35.89;36.71
80149;BME280;69473;42.426;26.644;2023-08-06T06:58:29;97599.25;;;36.74;34.85
80149;BME280;69473;42.426;26.644;2023-08-06T07:00:55;97590.09;;;36.69;34.41
80149;BME280;69473;42.426;26.644;2023-08-06T07:03:21;97594.69;;;36.88;33.97
80149;BME280;69473;42.426;26.644;2023-08-06T07:05:46;97609.44;;;36.18;35.17
80149;BME280;69473;42.426;26.644;2023-08-06T07:08:12;97603.28;;;35.33;36.17
80149;BME280;69473;42.426;26.644;2023-08-06T07:10:40;97600.50;;;36.79;34.26
80149;BME280;69473;42.426;26.644;2023-08-06T07:13:05;97593.47;;;37.44;33.20
80149;BME280;69473;42.426;26.644;2023-08-06T07:15:31;97588.94;;;37.58;32.33
80149;BME280;69473;42.426;26.644;2023-08-06T07:17:57;97587.88;;;38.30;30.29
80149;BME280;69473;42.426;26.644;2023-08-06T07:20:22;97588.09;;;37.64;31.12
80149;BME280;69473;42.426;26.644;2023-08-06T07:22:48;97594.69;;;36.82;32.95
80149;BME280;69473;42.426;26.644;2023-08-06T07:25:15;97592.94;;;38.20;30.03
80149;BME280;69473;42.426;26.644;2023-08-06T07:27:41;97597.06;;;36.43;32.18
80149;BME280;69473;42.426;26.644;2023-08-06T07:30:07;97608.59;;;33.96;35.58
80149;BME280;69473;42.426;26.644;2023-08-06T07:32:33;97605.59;;;32.77;37.74
80149;BME280;69473;42.426;26.644;2023-08-06T07:34:58;97605.81;;;34.04;35.75
80149;BME280;69473;42.426;26.644;2023-08-06T07:37:28;97610.72;;;31.77;40.90
80149;BME280;69473;42.426;26.644;2023-08-06T07:39:54;97596.75;;;33.38;37.23
80149;BME280;69473;42.426;26.644;2023-08-06T07:42:20;97584.81;;;32.79;38.36
80149;BME280;69473;42.426;26.644;2023-08-06T07:44:54;97597.81;;;33.66;36.95
80149;BME280;69473;42.426;26.644;2023-08-06T07:47:21;97593.28;;;33.14;37.92
80149;BME280;69473;42.426;26.644;2023-08-06T07:49:46;97597.75;;;31.33;41.75
80149;BME280;69473;42.426;26.644;2023-08-06T07:52:12;97606.78;;;30.83;43.58
80149;BME280;69473;42.426;26.644;2023-08-06T07:54:37;97601.72;;;30.47;44.07
80149;BME280;69473;42.426;26.644;2023-08-06T07:57:03;97599.47;;;30.85;43.40
80149;BME280;69473;42.426;26.644;2023-08-06T07:59:29;97585.03;;;30.70;44.83
80149;BME280;69473;42.426;26.644;2023-08-06T08:01:54;97584.75;;;31.22;43.34
80149;BME280;69473;42.426;26.644;2023-08-06T08:04:20;97588.91;;;31.08;43.55
80149;BME280;69473;42.426;26.644;2023-08-06T08:06:46;97576.72;;;31.38;42.05
80149;BME280;69473;42.426;26.644;2023-08-06T08:09:12;97572.06;;;30.91;43.54
80149;BME280;69473;42.426;26.644;2023-08-06T08:11:39;97568.34;;;31.41;42.18
80149;BME280;69473;42.426;26.644;2023-08-06T08:14:05;97556.81;;;31.96;40.61
80149;BME280;69473;42.426;26.644;2023-08-06T08:16:31;97560.97;;;31.27;41.92
80149;BME280;69473;42.426;26.644;2023-08-06T08:18:56;97559.00;;;31.13;43.00
80149;BME280;69473;42.426;26.644;2023-08-06T08:21:22;97551.63;;;30.57;43.74
80149;BME280;69473;42.426;26.644;2023-08-06T08:23:50;97562.66;;;31.20;42.82
80149;BME280;69473;42.426;26.644;2023-08-06T08:26:16;97545.81;;;31.75;41.56
80149;BME280;69473;42.426;26.644;2023-08-06T08:28:41;97545.75;;;32.00;40.87
80149;BME280;69473;42.426;26.644;2023-08-06T08:31:10;97559.84;;;31.85;42.32
80149;BME280;69473;42.426;26.644;2023-08-06T08:33:39;97548.59;;;30.77;43.98
80149;BME280;69473;42.426;26.644;2023-08-06T08:36:05;97553.28;;;30.50;45.51
80149;BME280;69473;42.426;26.644;2023-08-06T08:38:31;97556.56;;;30.20;46.04
80149;BME280;69473;42.426;26.644;2023-08-06T08:40:56;97545.56;;;30.39;44.88
80149;BME280;69473;42.426;26.644;2023-08-06T08:43:23;97544.59;;;30.48;44.72
80149;BME280;69473;42.426;26.644;2023-08-06T08:45:53;97538.78;;;30.94;43.70
80149;BME280;69473;42.426;26.644;2023-08-06T08:48:26;97529.50;;;31.54;43.29
80149;BME280;69473;42.426;26.644;2023-08-06T08:50:53;97517.16;;;31.44;43.12
80149;BME280;69473;42.426;26.644;2023-08-06T08:53:18;97513.53;;;30.64;44.47
80149;BME280;69473;42.426;26.644;2023-08-06T08:55:48;97506.69;;;30.77;44.32
80149;BME280;69473;42.426;26.644;2023-08-06T08:58:15;97510.88;;;30.80;44.78
80149;BME280;69473;42.426;26.644;2023-08-06T09:00:42;97507.84;;;30.99;44.04
80149;BME280;69473;42.426;26.644;2023-08-06T09:03:08;97524.53;;;30.36;45.14
80149;BME280;69473;42.426;26.644;2023-08-06T09:05:34;97537.91;;;29.59;44.50
80149;BME280;69473;42.426;26.644;2023-08-06T09:08:04;97531.72;;;29.24;44.58
80149;BME280;69473;42.426;26.644;2023-08-06T09:10:30;97553.44;;;28.22;45.92
80149;BME280;69473;42.426;26.644;2023-08-06T09:12:57;97565.69;;;28.15;45.48
80149;BME280;69473;42.426;26.644;2023-08-06T09:15:27;97560.47;;;28.23;44.52
80149;BME280;69473;42.426;26.644;2023-08-06T09:17:54;97553.75;;;28.19;44.25
80149;BME280;69473;42.426;26.644;2023-08-06T09:20:20;97572.47;;;27.35;45.50
80149;BME280;69473;42.426;26.644;2023-08-06T09:22:46;97578.25;;;27.21;48.76
80149;BME280;69473;42.426;26.644;2023-08-06T09:25:21;97576.84;;;27.26;49.68
80149;BME280;69473;42.426;26.644;2023-08-06T09:27:49;97575.44;;;27.22;49.62
80149;BME280;69473;42.426;26.644;2023-08-06T09:30:29;97601.19;;;27.22;49.56
80149;BME280;69473;42.426;26.644;2023-08-06T09:32:56;97614.88;;;26.98;50.63
80149;BME280;69473;42.426;26.644;2023-08-06T09:35:22;97603.44;;;26.68;51.21
80149;BME280;69473;42.426;26.644;2023-08-06T09:37:47;97625.13;;;26.23;52.70
80149;BME280;69473;42.426;26.644;2023-08-06T09:40:31;97635.16;;;26.10;53.90
80149;BME280;69473;42.426;26.644;2023-08-06T09:42:58;97601.56;;;26.30;52.97
80149;BME280;69473;42.426;26.644;2023-08-06T09:45:31;97561.13;;;26.26;52.85
80149;BME280;69473;42.426;26.644;2023-08-06T09:48:03;97529.25;;;26.07;53.26
80149;BME280;69473;42.426;26.644;2023-08-06T09:50:31;97546.44;;;26.02;53.58
80149;BME280;69473;42.426;26.644;2023-08-06T09:52:59;97576.84;;;25.58;55.15
80149;BME280;69473;42.426;26.644;2023-08-06T09:55:26;97620.13;;;25.38;56.44
80149;BME280;69473;42.426;26.644;2023-08-06T09:57:52;97646.88;;;25.14;58.12
80149;BME280;69473;42.426;26.644;2023-08-06T10:00:19;97646.47;;;24.97;61.03
80149;BME280;69473;42.426;26.644;2023-08-06T10:03:00;97672.78;;;24.78;64.84
80149;BME280;69473;42.426;26.644;2023-08-06T10:05:27;97736.13;;;24.13;67.70
80149;BME280;69473;42.426;26.644;2023-08-06T10:08:14;97749.75;;;23.03;70.99
80149;BME280;69473;42.426;26.644;2023-08-06T10:10:57;97724.59;;;22.11;72.96
80149;BME280;69473;42.426;26.644;2023-08-06T10:13:25;97727.16;;;22.25;72.17
80149;BME280;69473;42.426;26.644;2023-08-06T10:15:52;97696.16;;;22.77;72.06
80149;BME280;69473;42.426;26.644;2023-08-06T10:18:20;97691.91;;;22.87;71.22
80149;BME280;69473;42.426;26.644;2023-08-06T10:20:47;97683.06;;;22.75;71.52
80149;BME280;69473;42.426;26.644;2023-08-06T10:23:13;97643.69;;;23.32;72.48
80149;BME280;69473;42.426;26.644;2023-08-06T10:25:41;97605.53;;;23.92;67.84
80149;BME280;69473;42.426;26.644;2023-08-06T10:28:10;97604.50;;;23.83;68.64
80149;BME280;69473;42.426;26.644;2023-08-06T10:30:46;97570.75;;;24.19;67.73
80149;BME280;69473;42.426;26.644;2023-08-06T10:33:13;97567.69;;;24.46;66.17
80149;BME280;69473;42.426;26.644;2023-08-06T10:35:44;97576.56;;;24.56;66.36
80149;BME280;69473;42.426;26.644;2023-08-06T10:40:48;97567.59;;;24.69;65.70
80149;BME280;69473;42.426;26.644;2023-08-06T10:43:33;97573.72;;;24.69;65.93
80149;BME280;69473;42.426;26.644;2023-08-06T10:46:01;97592.84;;;24.52;66.32
80149;BME280;69473;42.426;26.644;2023-08-06T10:51:48;97603.16;;;23.78;69.56
80149;BME280;69473;42.426;26.644;2023-08-06T10:54:15;97586.81;;;23.84;70.60
80149;BME280;69473;42.426;26.644;2023-08-06T10:56:40;97587.47;;;24.19;69.06
80149;BME280;69473;42.426;26.644;2023-08-06T10:59:07;97592.75;;;24.31;69.89
80149;BME280;69473;42.426;26.644;2023-08-06T11:01:33;97604.88;;;24.45;69.70
80149;BME280;69473;42.426;26.644;2023-08-06T11:04:02;97618.13;;;24.33;71.32
80149;BME280;69473;42.426;26.644;2023-08-06T11:06:28;97617.03;;;24.47;69.37
80149;BME280;69473;42.426;26.644;2023-08-06T11:08:54;97615.75;;;25.27;69.80
80149;BME280;69473;42.426;26.644;2023-08-06T11:11:21;97601.09;;;26.24;69.12
80149;BME280;69473;42.426;26.644;2023-08-06T11:13:49;97607.88;;;27.06;66.81
80149;BME280;69473;42.426;26.644;2023-08-06T11:16:17;97604.25;;;26.59;64.28
80149;BME280;69473;42.426;26.644;2023-08-06T11:18:44;97604.09;;;26.51;66.69
80149;BME280;69473;42.426;26.644;2023-08-06T11:21:10;97616.75;;;25.56;66.49
80149;BME280;69473;42.426;26.644;2023-08-06T11:23:41;97605.25;;;25.46;66.84
80149;BME280;69473;42.426;26.644;2023-08-06T11:26:07;97595.25;;;25.60;67.67
80149;BME280;69473;42.426;26.644;2023-08-06T11:28:33;97600.84;;;25.87;62.97
80149;BME280;69473;42.426;26.644;2023-08-06T11:30:58;97603.28;;;26.00;62.76
80149;BME280;69473;42.426;26.644;2023-08-06T11:33:28;97605.16;;;25.57;65.47
80149;BME280;69473;42.426;26.644;2023-08-06T11:35:59;97600.22;;;26.05;60.91
80149;BME280;69473;42.426;26.644;2023-08-06T11:38:26;97583.88;;;26.09;59.17
80149;BME280;69473;42.426;26.644;2023-08-06T11:40:52;97590.75;;;26.12;58.51
80149;BME280;69473;42.426;26.644;2023-08-06T11:43:19;97581.53;;;26.16;59.19
80149;BME280;69473;42.426;26.644;2023-08-06T11:45:49;97580.72;;;26.44;59.69
80149;BME280;69473;42.426;26.644;2023-08-06T11:48:15;97579.59;;;26.27;57.74
80149;BME280;69473;42.426;26.644;2023-08-06T11:50:40;97586.81;;;26.16;57.73
80149;BME280;69473;42.426;26.644;2023-08-06T11:53:06;97602.28;;;26.01;58.74
80149;BME280;69473;42.426;26.644;2023-08-06T11:55:32;97611.97;;;26.12;58.73
80149;BME280;69473;42.426;26.644;2023-08-06T11:57:59;97619.81;;;26.23;58.87
80149;BME280;69473;42.426;26.644;2023-08-06T12:00:28;97623.25;;;26.54;58.09
80149;BME280;69473;42.426;26.644;2023-08-06T12:02:54;97617.72;;;26.67;59.25
80149;BME280;69473;42.426;26.644;2023-08-06T12:05:23;97630.00;;;26.87;57.63
80149;BME280;69473;42.426;26.644;2023-08-06T12:07:55;97632.13;;;26.24;58.55
80149;BME280;69473;42.426;26.644;2023-08-06T12:10:22;97635.03;;;26.71;57.33
80149;BME280;69473;42.426;26.644;2023-08-06T12:12:49;97632.22;;;26.72;56.16
80149;BME280;69473;42.426;26.644;2023-08-06T12:15:15;97629.88;;;26.89;58.22
80149;BME280;69473;42.426;26.644;2023-08-06T12:17:41;97634.59;;;27.44;57.31
80149;BME280;69473;42.426;26.644;2023-08-06T12:20:07;97629.44;;;27.23;56.23
80149;BME280;69473;42.426;26.644;2023-08-06T12:22:34;97641.94;;;27.69;59.90
80149;BME280;69473;42.426;26.644;2023-08-06T12:25:05;97637.72;;;27.86;58.61
80149;BME280;69473;42.426;26.644;2023-08-06T12:27:42;97644.91;;;28.13;57.21
80149;BME280;69473;42.426;26.644;2023-08-06T12:30:08;97629.28;;;27.91;57.73
80149;BME280;69473;42.426;26.644;2023-08-06T12:32:35;97634.25;;;28.13;57.55
80149;BME280;69473;42.426;26.644;2023-08-06T12:35:01;97624.72;;;27.83;56.68
80149;BME280;69473;42.426;26.644;2023-08-06T12:37:27;97632.44;;;27.57;59.06
80149;BME280;69473;42.426;26.644;2023-08-06T12:39:53;97629.59;;;27.88;59.10
80149;BME280;69473;42.426;26.644;2023-08-06T12:42:19;97625.66;;;27.92;58.45
80149;BME280;69473;42.426;26.644;2023-08-06T12:44:44;97619.66;;;28.63;56.74
80149;BME280;69473;42.426;26.644;2023-08-06T12:47:11;97632.53;;;28.49;55.97
80149;BME280;69473;42.426;26.644;2023-08-06T12:49:36;97639.38;;;28.24;56.41
80149;BME280;69473;42.426;26.644;2023-08-06T12:52:03;97639.38;;;28.24;55.87
80149;BME280;69473;42.426;26.644;2023-08-06T12:54:31;97624.69;;;28.66;54.47
80149;BME280;69473;42.426;26.644;2023-08-06T12:57:02;97621.13;;;28.93;53.81
80149;BME280;69473;42.426;26.644;2023-08-06T12:59:28;97615.94;;;29.09;52.65
80149;BME280;69473;42.426;26.644;2023-08-06T13:01:54;97619.00;;;28.78;51.70
80149;BME280;69473;42.426;26.644;2023-08-06T13:04:19;97633.31;;;28.77;54.33